createdAt,value
2023-09-23T00:01:13.159Z,100457.48
2023-09-23T00:03:44.285Z,100453.72
2023-09-23T00:06:14.348Z,100455.86
2023-09-23T00:08:46.740Z,100454.50
2023-09-23T00:11:16.638Z,100456.37
2023-09-23T00:13:46.578Z,100452.88
2023-09-23T00:16:16.362Z,100453.67
2023-09-23T00:18:47.313Z,100452.05
2023-09-23T00:21:17.195Z,100450.41
2023-09-23T00:23:47.342Z,100446.92
2023-09-23T00:26:18.362Z,100449.62
2023-09-23T00:28:48.769Z,100447.72
2023-09-23T00:31:19.393Z,100453.38
2023-09-23T00:33:50.863Z,100446.36
2023-09-23T00:36:20.584Z,100453.63
2023-09-23T00:38:50.158Z,100453.63
2023-09-23T00:41:19.680Z,100448.50
2023-09-23T00:43:51.999Z,100454.13
2023-09-23T00:46:24.403Z,100452.50
2023-09-23T00:48:55.668Z,100452.50
2023-09-23T00:51:25.448Z,100457.09
2023-09-23T00:53:55.911Z,100451.95
2023-09-23T00:56:25.773Z,100451.39
2023-09-23T00:58:55.297Z,100448.96
2023-09-23T01:01:24.892Z,100450.03
2023-09-23T01:03:54.684Z,100441.39
2023-09-23T01:06:28.601Z,100449.70
2023-09-23T01:09:00.697Z,100440.50
2023-09-23T01:11:31.437Z,100445.89
2023-09-23T01:14:03.107Z,100444.27
2023-09-23T01:16:33.330Z,100438.08
2023-09-23T01:19:02.851Z,100442.34
2023-09-23T01:21:32.828Z,100446.91
2023-09-23T01:24:03.097Z,100441.79
2023-09-23T01:26:34.712Z,100432.64
2023-09-23T01:29:05.569Z,100429.95
2023-09-23T01:31:36.117Z,100429.38
2023-09-23T01:34:07.400Z,100430.45
2023-09-23T01:36:37.977Z,100432.31
2023-09-23T01:39:08.081Z,100442.30
2023-09-23T01:41:37.579Z,100428.83
2023-09-23T01:44:08.091Z,100434.50
2023-09-23T01:46:38.505Z,100437.20
2023-09-23T01:49:08.226Z,100439.66
2023-09-23T01:51:38.690Z,100445.05
2023-09-23T01:54:10.399Z,100446.67
2023-09-23T01:56:40.890Z,100442.59
2023-09-23T01:59:12.675Z,100450.66
2023-09-23T02:01:44.569Z,100459.58
2023-09-23T02:04:14.986Z,100456.05
2023-09-23T02:06:45.165Z,100456.88
2023-09-23T02:09:14.787Z,100462.52
2023-09-23T02:11:44.234Z,100460.64
2023-09-23T02:14:14.542Z,100452.80
2023-09-23T02:16:44.854Z,100465.70
2023-09-23T02:19:14.763Z,100468.91
2023-09-23T02:21:44.257Z,100459.20
2023-09-23T02:24:14.253Z,100462.95
2023-09-23T02:26:46.405Z,100468.84
2023-09-23T02:29:17.433Z,100478.50
2023-09-23T02:31:48.406Z,100487.91
2023-09-23T02:34:19.396Z,100483.59
2023-09-23T02:36:51.478Z,100481.69
2023-09-23T02:39:21.233Z,100480.06
2023-09-23T02:41:51.638Z,100478.67
2023-09-23T02:44:23.637Z,100477.84
2023-09-23T02:46:53.976Z,100470.83
2023-09-23T02:49:23.646Z,100476.48
2023-09-23T02:51:53.097Z,100476.22
2023-09-23T02:54:22.926Z,100479.97
2023-09-23T02:56:52.544Z,100471.33
2023-09-23T02:59:26.910Z,100476.72
2023-09-23T03:01:58.619Z,100475.09
2023-09-23T03:04:29.968Z,100474.52
2023-09-23T03:07:02.633Z,100467.51
2023-09-23T03:09:33.159Z,100468.58
2023-09-23T03:12:04.442Z,100466.38
2023-09-23T03:14:37.215Z,100474.46
2023-09-23T03:17:08.061Z,100467.45
2023-09-23T03:19:39.011Z,100467.71
2023-09-23T03:22:08.533Z,100474.16
2023-09-23T03:24:38.272Z,100470.08
2023-09-23T03:27:09.386Z,100473.83
2023-09-23T03:29:38.779Z,100472.20
2023-09-23T03:32:08.985Z,100468.95
2023-09-23T03:34:40.384Z,100471.90
2023-09-23T03:37:10.586Z,100482.91
2023-09-23T03:39:42.127Z,100483.97
2023-09-23T03:42:12.866Z,100493.10
2023-09-23T03:44:43.852Z,100507.63
2023-09-23T03:47:13.254Z,100518.32
2023-09-23T03:49:42.844Z,100516.39
2023-09-23T03:52:14.099Z,100518.74
2023-09-23T03:54:43.634Z,100510.91
2023-09-23T03:57:13.074Z,100520.03
2023-09-23T03:59:42.588Z,100513.28
2023-09-23T04:02:12.731Z,100512.45
2023-09-23T04:04:43.395Z,100517.03
2023-09-23T04:07:16.726Z,100519.16
2023-09-23T04:09:46.146Z,100527.23
2023-09-23T04:12:16.531Z,100521.28
2023-09-23T04:14:46.494Z,100514.01
2023-09-23T04:17:16.098Z,100507.83
2023-09-23T04:19:45.585Z,100514.27
2023-09-23T04:22:15.605Z,100527.95
2023-09-23T04:24:45.251Z,100538.14
2023-09-23T04:27:14.668Z,100540.27
2023-09-23T04:29:44.738Z,100531.63
2023-09-23T04:32:14.922Z,100537.50
2023-09-23T04:34:46.531Z,100539.39
2023-09-23T04:37:16.028Z,100543.71
2023-09-23T04:39:45.747Z,100548.26
2023-09-23T04:42:15.355Z,100548.52
2023-09-23T04:44:45.307Z,100560.57
2023-09-23T04:47:15.588Z,100561.06
2023-09-23T04:49:45.248Z,100563.17
2023-09-23T04:52:16.106Z,100561.06
2023-09-23T04:54:45.832Z,100560.83
2023-09-23T04:57:15.585Z,100559.28
2023-09-23T04:59:45.099Z,100566.03
2023-09-23T05:02:15.084Z,100559.36
2023-09-23T05:04:45.846Z,100568.58
2023-09-23T05:07:15.441Z,100573.20
2023-09-23T05:09:46.103Z,100569.80
2023-09-23T05:12:15.928Z,100570.94
2023-09-23T05:14:46.633Z,100570.44
2023-09-23T05:17:16.720Z,100578.86
2023-09-23T05:19:46.979Z,100572.16
2023-09-23T05:22:17.288Z,100576.81
2023-09-23T05:24:48.218Z,100578.75
2023-09-23T05:27:17.727Z,100569.95
2023-09-23T05:29:51.277Z,100573.52
2023-09-23T05:32:21.175Z,100570.09
2023-09-23T05:34:53.495Z,100586.33
2023-09-23T05:37:23.116Z,100586.89
2023-09-23T05:39:52.634Z,100591.55
2023-09-23T05:42:24.730Z,100589.75
2023-09-23T05:44:55.939Z,100587.92
2023-09-23T05:47:25.526Z,100597.70
2023-09-23T05:49:55.117Z,100591.89
2023-09-23T05:52:25.238Z,100596.54
2023-09-23T05:54:55.403Z,100600.66
2023-09-23T05:57:25.018Z,100601.05
2023-09-23T05:59:54.637Z,100608.70
2023-09-23T06:02:24.835Z,100609.88
2023-09-23T06:04:54.944Z,100619.16
2023-09-23T06:07:24.806Z,100616.80
2023-09-23T06:09:54.136Z,100613.92
2023-09-23T06:12:27.247Z,100618.06
2023-09-23T06:14:57.678Z,100622.77
2023-09-23T06:17:28.360Z,100627.70
2023-09-23T06:19:59.011Z,100631.30
2023-09-23T06:22:29.289Z,100637.86
2023-09-23T06:24:58.999Z,100641.98
2023-09-23T06:27:28.490Z,100639.38
2023-09-23T06:29:58.055Z,100645.92
2023-09-23T06:32:28.397Z,100644.93
2023-09-23T06:34:58.730Z,100650.69
2023-09-23T06:37:28.240Z,100649.12
2023-09-23T06:39:57.650Z,100652.97
2023-09-23T06:42:27.160Z,100655.17
2023-09-23T06:44:56.786Z,100652.81
2023-09-23T06:47:26.189Z,100655.58
2023-09-23T06:49:56.097Z,100654.00
2023-09-23T06:52:25.580Z,100648.92
2023-09-23T06:54:55.644Z,100653.29
2023-09-23T06:57:25.209Z,100652.53
2023-09-23T06:59:54.628Z,100650.69
2023-09-23T07:02:24.122Z,100651.52
2023-09-23T07:04:54.400Z,100654.54
2023-09-23T07:07:23.938Z,100654.02
2023-09-23T07:09:53.400Z,100659.16
2023-09-23T07:12:23.058Z,100667.84
2023-09-23T07:14:53.306Z,100663.00
2023-09-23T07:17:22.857Z,100663.00
2023-09-23T07:19:52.396Z,100683.33
2023-09-23T07:22:21.938Z,100671.39
2023-09-23T07:24:52.036Z,100677.05
2023-09-23T07:27:22.116Z,100678.40
2023-09-23T07:29:51.651Z,100682.74
2023-09-23T07:32:21.184Z,100690.00
2023-09-23T07:34:50.934Z,100675.85
2023-09-23T07:37:20.737Z,100682.30
2023-09-23T07:39:51.107Z,100683.88
2023-09-23T07:42:20.429Z,100677.34
2023-09-23T07:44:50.680Z,100681.09
2023-09-23T07:47:20.436Z,100673.11
2023-09-23T07:49:49.838Z,100674.92
2023-09-23T07:52:19.325Z,100679.41
2023-09-23T07:54:49.262Z,100671.44
2023-09-23T07:57:19.295Z,100672.95
2023-09-23T07:59:48.720Z,100673.59
2023-09-23T08:02:18.357Z,100667.20
2023-09-23T08:04:48.198Z,100667.03
2023-09-23T08:07:18.390Z,100667.95
2023-09-23T08:09:47.908Z,100664.25
2023-09-23T08:12:17.468Z,100665.98
2023-09-23T08:14:47.100Z,100652.95
2023-09-23T08:17:17.049Z,100665.75
2023-09-23T08:19:46.695Z,100662.55
2023-09-23T08:22:16.287Z,100651.41
2023-09-23T08:24:45.908Z,100652.77
2023-09-23T08:27:15.705Z,100659.28
2023-09-23T08:29:45.272Z,100646.80
2023-09-23T08:32:14.778Z,100653.59
2023-09-23T08:34:44.395Z,100647.04
2023-09-23T08:37:14.663Z,100647.52
2023-09-23T08:39:44.383Z,100647.20
2023-09-23T08:42:14.986Z,100654.30
2023-09-23T08:44:45.353Z,100643.33
2023-09-23T08:47:15.668Z,100643.31
2023-09-23T08:49:47.130Z,100638.60
2023-09-23T08:52:16.853Z,100641.29
2023-09-23T08:54:50.314Z,100629.98
2023-09-23T08:57:20.607Z,100638.13
2023-09-23T08:59:50.179Z,100626.30
2023-09-23T09:02:23.019Z,100638.46
2023-09-23T09:04:55.561Z,100635.61
2023-09-23T09:07:32.934Z,100632.78
2023-09-23T09:10:03.022Z,100638.94
2023-09-23T09:12:34.918Z,100635.27
2023-09-23T09:15:04.999Z,100630.01
2023-09-23T09:17:35.316Z,100633.11
2023-09-23T09:20:09.362Z,100632.63
2023-09-23T09:22:40.413Z,100621.83
2023-09-23T09:25:12.079Z,100629.89
2023-09-23T09:27:42.313Z,100624.25
2023-09-23T09:30:13.973Z,100633.09
2023-09-23T09:32:44.396Z,100630.00
2023-09-23T09:35:14.514Z,100619.95
2023-09-23T09:37:44.611Z,100621.58
2023-09-23T09:40:15.936Z,100619.92
2023-09-23T09:42:49.403Z,100614.41
2023-09-23T09:45:20.058Z,100614.64
2023-09-23T09:47:49.453Z,100612.47
2023-09-23T09:50:17.978Z,100608.11
2023-09-23T09:52:46.646Z,100607.05
2023-09-23T09:55:17.872Z,100611.80
2023-09-23T09:57:46.730Z,100611.87
2023-09-23T10:00:23.964Z,100613.74
2023-09-23T10:02:57.000Z,100614.65
2023-09-23T10:05:31.918Z,100606.13
2023-09-23T10:08:11.475Z,100614.89
2023-09-23T10:10:45.482Z,100606.68
2023-09-23T10:13:14.708Z,100594.13
2023-09-23T10:15:43.854Z,100599.98
2023-09-23T10:18:14.218Z,100596.56
2023-09-23T10:20:43.212Z,100591.88
2023-09-23T10:23:15.837Z,100587.86
2023-09-23T10:25:45.015Z,100589.03
2023-09-23T10:28:23.459Z,100579.97
2023-09-23T10:30:59.033Z,100587.39
2023-09-23T10:33:30.869Z,100585.77
2023-09-23T10:35:59.587Z,100581.86
2023-09-23T10:38:31.203Z,100573.47
2023-09-23T10:40:59.660Z,100568.25
2023-09-23T10:43:28.975Z,100571.66
2023-09-23T10:45:58.747Z,100561.20
2023-09-23T10:48:27.228Z,100564.15
2023-09-23T10:50:55.613Z,100559.62
2023-09-23T10:53:25.220Z,100555.92
2023-09-23T10:55:54.417Z,100555.67
2023-09-23T10:58:22.869Z,100544.48
2023-09-23T11:00:52.758Z,100552.05
2023-09-23T11:03:22.070Z,100546.71
2023-09-23T11:05:51.723Z,100544.14
2023-09-23T11:08:20.136Z,100542.71
2023-09-23T11:10:49.808Z,100535.77
2023-09-23T11:13:19.185Z,100533.58
2023-09-23T11:15:48.631Z,100526.98
2023-09-23T11:18:18.272Z,100528.30
2023-09-23T11:20:47.408Z,100518.25
2023-09-23T11:23:15.971Z,100524.38
2023-09-23T11:25:47.330Z,100518.91
2023-09-23T11:28:19.387Z,100517.03
2023-09-23T11:30:48.187Z,100511.67
2023-09-23T11:33:17.449Z,100504.73
2023-09-23T11:35:46.026Z,100507.20
2023-09-23T11:38:14.398Z,100503.72
2023-09-23T11:40:43.535Z,100494.37
2023-09-23T11:43:11.897Z,100490.16
2023-09-23T11:45:42.759Z,100491.02
2023-09-23T11:48:11.359Z,100489.05
2023-09-23T11:50:40.196Z,100492.69
2023-09-23T11:53:09.488Z,100486.43
2023-09-23T11:55:38.428Z,100477.41
2023-09-23T11:58:06.771Z,100477.06
2023-09-23T12:00:35.222Z,100484.23
2023-09-23T12:03:06.903Z,100474.79
2023-09-23T12:05:35.623Z,100478.06
2023-09-23T12:08:04.673Z,100465.94
2023-09-23T12:10:33.040Z,100469.21
2023-09-23T12:13:05.538Z,100465.72
2023-09-23T12:15:35.086Z,100464.17
2023-09-23T12:18:04.101Z,100467.36
2023-09-23T12:20:33.575Z,100455.95
2023-09-23T12:23:02.663Z,100457.17
2023-09-23T12:25:31.530Z,100453.67
2023-09-23T12:28:00.732Z,100460.06
2023-09-23T12:30:29.108Z,100455.39
2023-09-23T12:32:57.449Z,100450.72
2023-09-23T12:35:25.872Z,100455.52
2023-09-23T12:37:54.979Z,100448.47
2023-09-23T12:40:23.553Z,100455.63
2023-09-23T12:42:52.150Z,100448.94
2023-09-23T12:45:20.765Z,100453.30
2023-09-23T12:47:57.522Z,100456.06
2023-09-23T12:50:26.959Z,100443.51
2023-09-23T12:52:56.031Z,100456.20
2023-09-23T12:55:24.757Z,100447.17
2023-09-23T12:57:54.466Z,100456.70
2023-09-23T13:00:23.624Z,100453.98
2023-09-23T13:02:52.360Z,100457.61
2023-09-23T13:05:21.454Z,100454.48
2023-09-23T13:07:50.372Z,100456.08
2023-09-23T13:10:18.870Z,100461.61
2023-09-23T13:12:47.323Z,100456.44
2023-09-23T13:15:16.864Z,100446.50
2023-09-23T13:17:47.100Z,100452.81
2023-09-23T13:20:16.124Z,100445.27
2023-09-23T13:22:44.620Z,100441.75
2023-09-23T13:25:15.892Z,100446.11
2023-09-23T13:27:44.720Z,100435.91
2023-09-23T13:30:13.562Z,100433.56
2023-09-23T13:32:42.707Z,100433.20
2023-09-23T13:35:11.789Z,100424.09
2023-09-23T13:37:41.095Z,100420.97
2023-09-23T13:40:11.908Z,100425.70
2023-09-23T13:42:40.673Z,100412.25
2023-09-23T13:45:09.734Z,100407.47
2023-09-23T13:47:38.937Z,100403.84
2023-09-23T13:50:10.138Z,100395.91
2023-09-23T13:52:38.472Z,100390.77
2023-09-23T13:55:07.596Z,100393.46
2023-09-23T13:57:36.495Z,100390.27
2023-09-23T14:00:07.116Z,100374.07
2023-09-23T14:02:35.840Z,100367.30
2023-09-23T14:05:05.193Z,100373.22
2023-09-23T14:07:35.305Z,100369.64
2023-09-23T14:10:18.541Z,100377.48
2023-09-23T14:12:47.826Z,100377.80
2023-09-23T14:15:16.367Z,100372.97
2023-09-23T14:17:46.934Z,100377.26
2023-09-23T14:20:15.596Z,100376.83
2023-09-23T14:22:46.457Z,100381.50
2023-09-23T14:25:18.097Z,100364.88
2023-09-23T14:27:46.695Z,100374.27
2023-09-23T14:30:16.022Z,100374.22
2023-09-23T14:32:44.434Z,100371.38
2023-09-23T14:35:12.944Z,100369.74
2023-09-23T14:37:41.516Z,100366.91
2023-09-23T14:40:12.746Z,100365.58
2023-09-23T14:42:41.202Z,100365.84
2023-09-23T14:45:10.011Z,100360.98
2023-09-23T14:47:39.048Z,100366.80
2023-09-23T14:50:08.251Z,100363.56
2023-09-23T14:52:36.554Z,100363.05
2023-09-23T14:55:06.518Z,100360.59
2023-09-23T14:57:35.162Z,100356.52
2023-09-23T15:00:05.596Z,100348.89
2023-09-23T15:02:34.067Z,100347.59
2023-09-23T15:05:03.010Z,100350.64
2023-09-23T15:07:31.737Z,100347.75
2023-09-23T15:10:00.721Z,100342.08
2023-09-23T15:12:29.212Z,100347.08
2023-09-23T15:14:57.605Z,100347.31
2023-09-23T15:17:26.384Z,100351.86
2023-09-23T15:19:55.526Z,100351.24
2023-09-23T15:22:24.529Z,100355.79
2023-09-23T15:24:52.933Z,100353.25
2023-09-23T15:27:22.443Z,100347.58
2023-09-23T15:29:52.839Z,100354.43
2023-09-23T15:32:21.810Z,100353.03
2023-09-23T15:34:50.296Z,100352.39
2023-09-23T15:37:18.602Z,100358.89
2023-09-23T15:39:49.414Z,100352.77
2023-09-23T15:42:20.387Z,100353.38
2023-09-23T15:44:48.758Z,100352.41
2023-09-23T15:47:18.696Z,100358.89
2023-09-23T15:49:47.122Z,100351.56
2023-09-23T15:52:16.486Z,100353.69
2023-09-23T15:54:44.824Z,100353.84
2023-09-23T15:57:13.139Z,100353.20
2023-09-23T15:59:41.785Z,100365.53
2023-09-23T16:02:11.075Z,100364.88
2023-09-23T16:04:39.577Z,100364.53
2023-09-23T16:07:08.261Z,100375.24
2023-09-23T16:09:36.769Z,100370.56
2023-09-23T16:12:07.351Z,100365.91
2023-09-23T16:14:36.162Z,100374.17
2023-09-23T16:17:04.690Z,100369.45
2023-09-23T16:19:33.142Z,100374.17
2023-09-23T16:22:03.128Z,100380.81
2023-09-23T16:24:31.964Z,100377.23
2023-09-23T16:27:00.336Z,100372.84
2023-09-23T16:29:28.742Z,100373.97
2023-09-23T16:31:57.577Z,100375.87
2023-09-23T16:34:26.774Z,100379.40
2023-09-23T16:36:55.707Z,100379.66
2023-09-23T16:39:24.063Z,100374.94
2023-09-23T16:41:53.464Z,100378.41
2023-09-23T16:44:22.330Z,100372.87
2023-09-23T16:46:50.653Z,100371.67
2023-09-23T16:49:19.077Z,100375.91
2023-09-23T16:51:48.574Z,100381.00
2023-09-23T16:54:17.066Z,100383.31
2023-09-23T16:56:45.696Z,100383.70
2023-09-23T16:59:14.160Z,100387.94
2023-09-23T17:01:42.544Z,100393.01
2023-09-23T17:04:12.257Z,100379.64
2023-09-23T17:06:40.632Z,100381.94
2023-09-23T17:09:10.013Z,100378.42
2023-09-23T17:11:38.398Z,100386.98
2023-09-23T17:14:07.261Z,100389.77
2023-09-23T17:16:36.495Z,100395.24
2023-09-23T17:19:05.540Z,100394.42
2023-09-23T17:21:34.049Z,100390.90
2023-09-23T17:24:03.134Z,100384.62
2023-09-23T17:26:32.275Z,100384.31
2023-09-23T17:29:02.133Z,100390.59
2023-09-23T17:31:33.362Z,100401.21
2023-09-23T17:34:02.924Z,100392.98
2023-09-23T17:36:31.394Z,100400.87
2023-09-23T17:39:00.346Z,100406.80
2023-09-23T17:41:29.948Z,100413.05
2023-09-23T17:43:59.113Z,100404.83
2023-09-23T17:46:28.541Z,100417.03
2023-09-23T17:48:57.327Z,100415.90
2023-09-23T17:51:25.717Z,100422.63
2023-09-23T17:53:54.138Z,100431.27
2023-09-23T17:56:24.970Z,100429.02
2023-09-23T17:58:53.404Z,100433.80
2023-09-23T18:01:21.841Z,100433.41
2023-09-23T18:03:50.931Z,100437.10
2023-09-23T18:06:19.537Z,100434.52
2023-09-23T18:08:47.948Z,100433.33
2023-09-23T18:11:17.395Z,100440.87
2023-09-23T18:13:46.105Z,100439.69
2023-09-23T18:16:17.762Z,100436.59
2023-09-23T18:18:46.887Z,100435.11
2023-09-23T18:21:16.805Z,100434.44
2023-09-23T18:23:45.614Z,100435.69
2023-09-23T18:26:14.875Z,100432.23
2023-09-23T18:28:44.766Z,100429.13
2023-09-23T18:31:13.083Z,100435.83
2023-09-23T18:33:41.787Z,100432.92
2023-09-23T18:36:11.309Z,100432.23
2023-09-23T18:38:42.634Z,100424.16
2023-09-23T18:41:11.199Z,100434.89
2023-09-23T18:43:39.623Z,100434.69
2023-09-23T18:46:08.943Z,100443.48
2023-09-23T18:48:38.014Z,100444.10
2023-09-23T18:51:06.854Z,100437.65
2023-09-23T18:53:38.001Z,100430.91
2023-09-23T18:56:06.621Z,100429.58
2023-09-23T18:58:35.294Z,100430.52
2023-09-23T19:01:03.966Z,100430.31
2023-09-23T19:03:32.606Z,100433.12
2023-09-23T19:06:01.141Z,100428.59
2023-09-23T19:08:30.068Z,100433.05
2023-09-23T19:10:58.625Z,100432.83
2023-09-23T19:13:27.162Z,100431.83
2023-09-23T19:15:55.538Z,100431.14
2023-09-23T19:18:24.832Z,100429.53
2023-09-23T19:20:54.059Z,100436.70
2023-09-23T19:23:24.605Z,100433.76
2023-09-23T19:25:53.542Z,100437.09
2023-09-23T19:28:23.013Z,100446.48
2023-09-23T19:30:54.811Z,100435.36
2023-09-23T19:33:23.426Z,100433.24
2023-09-23T19:35:51.905Z,100430.02
2023-09-23T19:38:20.852Z,100425.77
2023-09-23T19:40:52.123Z,100429.92
2023-09-23T19:43:20.849Z,100426.98
2023-09-23T19:45:55.073Z,100425.97
2023-09-23T19:48:23.945Z,100429.27
2023-09-23T19:50:53.136Z,100432.91
2023-09-23T19:53:21.630Z,100420.69
2023-09-23T19:55:50.434Z,100417.45
2023-09-23T19:58:20.086Z,100421.09
2023-09-23T20:00:50.379Z,100415.14
2023-09-23T20:03:19.222Z,100417.64
2023-09-23T20:05:48.380Z,100420.69
2023-09-23T20:08:17.868Z,100417.73
2023-09-23T20:10:48.206Z,100416.72
2023-09-23T20:13:16.662Z,100418.94
2023-09-23T20:15:45.060Z,100423.87
2023-09-23T20:18:14.153Z,100431.02
2023-09-23T20:20:44.288Z,100428.38
2023-09-23T20:23:12.652Z,100430.59
2023-09-23T20:25:41.498Z,100423.85
2023-09-23T20:28:10.215Z,100428.27
2023-09-23T20:30:39.741Z,100429.97
2023-09-23T20:33:08.021Z,100433.29
2023-09-23T20:35:37.215Z,100436.88
2023-09-23T20:38:05.824Z,100434.76
2023-09-23T20:40:34.817Z,100435.31
2023-09-23T20:43:04.132Z,100435.40
2023-09-23T20:45:34.336Z,100436.58
2023-09-23T20:48:02.845Z,100430.42
2023-09-23T20:50:32.123Z,100428.89
2023-09-23T20:53:01.179Z,100435.19
2023-09-23T20:55:30.472Z,100436.38
2023-09-23T20:57:58.868Z,100435.41
2023-09-23T21:00:27.612Z,100434.97
2023-09-23T21:02:56.915Z,100432.31
2023-09-23T21:05:25.562Z,100438.41
2023-09-23T21:07:54.001Z,100439.30
2023-09-23T21:10:24.099Z,100441.73
2023-09-23T21:12:53.145Z,100434.75
2023-09-23T21:15:21.563Z,100430.48
2023-09-23T21:17:50.012Z,100430.84
2023-09-23T21:20:18.851Z,100435.24
2023-09-23T21:22:47.848Z,100437.71
2023-09-23T21:25:16.714Z,100427.73
2023-09-23T21:27:45.020Z,100423.45
2023-09-23T21:30:13.657Z,100423.52
2023-09-23T21:32:42.727Z,100424.36
2023-09-23T21:35:11.865Z,100427.13
2023-09-23T21:37:40.240Z,100417.16
2023-09-23T21:40:09.770Z,100421.23
2023-09-23T21:42:38.903Z,100411.52
2023-09-23T21:45:11.020Z,100419.17
2023-09-23T21:47:39.493Z,100418.69
2023-09-23T21:50:09.001Z,100418.22
2023-09-23T21:52:37.813Z,100420.67
2023-09-23T21:55:07.408Z,100417.22
2023-09-23T21:57:36.425Z,100418.88
2023-09-23T22:00:14.750Z,100423.78
2023-09-23T22:02:43.224Z,100416.20
2023-09-23T22:05:12.756Z,100422.47
2023-09-23T22:07:41.136Z,100423.04
2023-09-23T22:10:10.012Z,100421.98
2023-09-23T22:12:39.208Z,100417.99
2023-09-23T22:15:09.272Z,100413.93
2023-09-23T22:17:37.652Z,100417.20
2023-09-23T22:20:07.676Z,100418.59
2023-09-23T22:22:38.693Z,100421.61
2023-09-23T22:25:12.019Z,100421.64
2023-09-23T22:27:40.484Z,100425.98
2023-09-23T22:30:09.862Z,100424.66
2023-09-23T22:32:39.222Z,100423.06
2023-09-23T22:35:11.540Z,100424.72
2023-09-23T22:37:40.108Z,100418.23
2023-09-23T22:40:13.931Z,100418.27
2023-09-23T22:42:42.939Z,100420.18
2023-09-23T22:45:17.577Z,100425.62
2023-09-23T22:47:53.084Z,100429.45
2023-09-23T22:50:23.502Z,100428.38
2023-09-23T22:52:52.041Z,100428.67
2023-09-23T22:55:23.391Z,100424.34
2023-09-23T22:57:52.182Z,100422.20
2023-09-23T23:00:21.920Z,100419.22
2023-09-23T23:02:51.049Z,100415.18
2023-09-23T23:05:20.315Z,100421.16
2023-09-23T23:07:49.882Z,100414.11
2023-09-23T23:10:18.742Z,100410.60
2023-09-23T23:12:47.707Z,100421.19
2023-09-23T23:15:17.348Z,100430.66
2023-09-23T23:17:46.374Z,100417.94
2023-09-23T23:20:22.118Z,100417.95
2023-09-23T23:22:51.276Z,100425.27
2023-09-23T23:25:20.390Z,100418.78
2023-09-23T23:27:48.720Z,100431.53
2023-09-23T23:30:18.401Z,100426.39
2023-09-23T23:32:48.846Z,100429.38
2023-09-23T23:35:18.127Z,100422.34
2023-09-23T23:37:46.836Z,100418.56
2023-09-23T23:40:16.755Z,100420.20
2023-09-23T23:42:45.305Z,100426.16
2023-09-23T23:45:13.801Z,100428.33
2023-09-23T23:47:42.287Z,100429.66
2023-09-23T23:50:11.648Z,100426.42
2023-09-23T23:52:41.120Z,100422.38
2023-09-23T23:55:10.590Z,100423.47
2023-09-23T23:57:39.063Z,100415.89
